createdAt,value
2023-05-14T00:00:42.923Z,12.71
2023-05-14T00:03:11.825Z,12.70
2023-05-14T00:05:42.176Z,12.70
2023-05-14T00:08:10.617Z,12.69
2023-05-14T00:10:43.230Z,12.65
2023-05-14T00:13:11.194Z,12.56
2023-05-14T00:15:44.753Z,12.53
2023-05-14T00:18:17.576Z,12.53
2023-05-14T00:20:48.245Z,12.51
2023-05-14T00:23:16.809Z,12.49
2023-05-14T00:25:46.106Z,12.51
2023-05-14T00:28:15.906Z,12.44
2023-05-14T00:30:44.454Z,12.41
2023-05-14T00:33:12.547Z,12.36
2023-05-14T00:35:42.762Z,12.33
2023-05-14T00:38:16.830Z,12.30
2023-05-14T00:40:51.866Z,12.28
2023-05-14T00:43:23.890Z,12.24
2023-05-14T00:45:53.935Z,12.25
2023-05-14T00:48:23.505Z,12.26
2023-05-14T00:50:52.422Z,12.22
2023-05-14T00:53:21.769Z,12.15
2023-05-14T00:55:52.150Z,12.14
2023-05-14T00:58:21.225Z,12.12
2023-05-14T01:00:49.361Z,12.08
2023-05-14T01:03:17.488Z,12.05
2023-05-14T01:05:56.605Z,12.06
2023-05-14T01:08:33.077Z,12.05
2023-05-14T01:11:08.904Z,12.07
2023-05-14T01:13:48.410Z,12.08
2023-05-14T01:16:20.316Z,12.08
2023-05-14T01:18:53.713Z,12.07
2023-05-14T01:21:37.831Z,12.03
2023-05-14T01:24:09.596Z,12.03
2023-05-14T01:26:37.867Z,12.03
2023-05-14T01:29:12.725Z,12.01
2023-05-14T01:31:44.168Z,11.99
2023-05-14T01:34:15.288Z,11.99
2023-05-14T01:36:49.086Z,11.93
2023-05-14T01:39:17.862Z,11.90
2023-05-14T01:41:47.788Z,11.88
2023-05-14T01:44:19.279Z,11.88
2023-05-14T01:46:47.668Z,11.87
2023-05-14T01:49:21.295Z,11.80
2023-05-14T01:51:51.446Z,11.78
2023-05-14T01:54:20.942Z,11.75
2023-05-14T01:56:49.081Z,11.76
2023-05-14T01:59:18.411Z,11.78
2023-05-14T02:01:50.170Z,11.74
2023-05-14T02:04:19.249Z,11.75
2023-05-14T02:06:48.536Z,11.73
2023-05-14T02:09:17.865Z,11.72
2023-05-14T02:11:45.807Z,11.72
2023-05-14T02:14:15.379Z,11.70
2023-05-14T02:16:43.851Z,11.68
2023-05-14T02:19:12.061Z,11.68
2023-05-14T02:21:41.054Z,11.69
2023-05-14T02:24:09.475Z,11.69
2023-05-14T02:26:38.996Z,11.67
2023-05-14T02:29:07.199Z,11.67
2023-05-14T02:31:36.540Z,11.67
2023-05-14T02:34:06.642Z,11.65
2023-05-14T02:36:36.669Z,11.65
2023-05-14T02:39:05.469Z,11.61
2023-05-14T02:41:36.479Z,11.60
2023-05-14T02:44:07.176Z,11.59
2023-05-14T02:46:36.029Z,11.56
2023-05-14T02:49:04.821Z,11.56
2023-05-14T02:51:33.058Z,11.56
2023-05-14T02:54:00.946Z,11.53
2023-05-14T02:56:29.154Z,11.53
2023-05-14T02:58:57.896Z,11.52
2023-05-14T03:01:27.749Z,11.46
2023-05-14T03:03:56.358Z,11.40
2023-05-14T03:06:24.546Z,11.39
2023-05-14T03:08:54.398Z,11.38
2023-05-14T03:11:23.149Z,11.37
2023-05-14T03:13:51.624Z,11.38
2023-05-14T03:16:20.330Z,11.37
2023-05-14T03:18:52.469Z,11.39
2023-05-14T03:21:20.716Z,11.40
2023-05-14T03:23:50.883Z,11.40
2023-05-14T03:26:21.566Z,11.40
2023-05-14T03:28:51.351Z,11.38
2023-05-14T03:31:19.941Z,11.39
2023-05-14T03:33:49.819Z,11.35
2023-05-14T03:36:21.521Z,11.34
2023-05-14T03:38:50.811Z,11.31
2023-05-14T03:41:20.008Z,11.31
2023-05-14T03:43:48.674Z,11.29
2023-05-14T03:46:16.963Z,11.28
2023-05-14T03:48:44.996Z,11.30
2023-05-14T03:51:19.970Z,11.31
2023-05-14T03:53:50.176Z,11.31
2023-05-14T03:56:19.109Z,11.35
2023-05-14T03:58:48.608Z,11.40
2023-05-14T04:01:16.598Z,11.43
2023-05-14T04:03:44.868Z,11.46
2023-05-14T04:06:16.565Z,11.53
2023-05-14T04:08:46.470Z,11.60
2023-05-14T04:11:14.746Z,11.67
2023-05-14T04:13:43.148Z,11.73
2023-05-14T04:16:12.874Z,11.78
2023-05-14T04:18:42.065Z,11.87
2023-05-14T04:21:12.841Z,11.96
2023-05-14T04:23:45.720Z,12.08
2023-05-14T04:26:15.748Z,12.14
2023-05-14T04:28:44.096Z,12.22
2023-05-14T04:31:12.157Z,12.30
2023-05-14T04:33:43.295Z,12.36
2023-05-14T04:36:11.857Z,12.42
2023-05-14T04:38:39.941Z,12.49
2023-05-14T04:41:08.146Z,12.57
2023-05-14T04:43:37.828Z,12.66
2023-05-14T04:46:06.324Z,12.75
2023-05-14T04:48:35.060Z,12.86
2023-05-14T04:51:07.082Z,12.93
2023-05-14T04:53:37.932Z,13.02
2023-05-14T04:56:06.546Z,13.10
2023-05-14T04:58:35.333Z,13.19
2023-05-14T05:01:09.335Z,13.27
2023-05-14T05:03:38.296Z,13.37
2023-05-14T05:06:10.460Z,13.47
2023-05-14T05:08:41.429Z,13.56
2023-05-14T05:11:14.131Z,13.67
2023-05-14T05:13:44.267Z,13.77
2023-05-14T05:16:14.401Z,13.84
2023-05-14T05:18:44.527Z,13.87
2023-05-14T05:21:14.004Z,13.90
2023-05-14T05:23:46.326Z,13.92
2023-05-14T05:26:14.872Z,13.92
2023-05-14T05:28:43.726Z,13.91
2023-05-14T05:31:13.243Z,13.93
2023-05-14T05:33:43.892Z,13.93
2023-05-14T05:36:17.042Z,13.95
2023-05-14T05:38:45.724Z,13.99
2023-05-14T05:41:14.833Z,14.08
2023-05-14T05:43:43.343Z,14.14
2023-05-14T05:46:15.557Z,14.27
2023-05-14T05:48:46.467Z,14.42
2023-05-14T05:51:15.212Z,14.57
2023-05-14T05:53:46.802Z,14.72
2023-05-14T05:56:15.692Z,14.84
2023-05-14T05:58:47.450Z,14.96
2023-05-14T06:01:17.583Z,15.07
2023-05-14T06:03:47.730Z,15.20
2023-05-14T06:06:19.336Z,15.32
2023-05-14T06:08:47.449Z,15.44
2023-05-14T06:11:17.016Z,15.53
2023-05-14T06:13:45.536Z,15.59
2023-05-14T06:16:14.131Z,15.60
2023-05-14T06:18:44.817Z,15.72
2023-05-14T06:21:16.136Z,15.81
2023-05-14T06:23:46.094Z,15.88
2023-05-14T06:26:14.354Z,15.93
2023-05-14T06:28:42.219Z,15.98
2023-05-14T06:31:10.805Z,15.95
2023-05-14T06:34:05.942Z,15.87
2023-05-14T06:36:34.357Z,15.77
2023-05-14T06:39:03.479Z,15.66
2023-05-14T06:41:34.447Z,15.60
2023-05-14T06:44:03.971Z,15.57
2023-05-14T06:46:34.437Z,15.49
2023-05-14T06:49:02.809Z,15.48
2023-05-14T06:51:34.373Z,15.50
2023-05-14T06:54:03.849Z,15.49
2023-05-14T06:56:32.037Z,15.51
2023-05-14T06:59:01.189Z,15.53
2023-05-14T07:01:31.776Z,15.54
2023-05-14T07:03:59.949Z,15.57
2023-05-14T07:06:28.491Z,15.59
2023-05-14T07:09:01.850Z,15.65
2023-05-14T07:11:30.814Z,15.78
2023-05-14T07:14:02.041Z,15.94
2023-05-14T07:16:30.096Z,16.15
2023-05-14T07:19:01.082Z,16.38
2023-05-14T07:21:29.296Z,16.52
2023-05-14T07:24:00.182Z,16.73
2023-05-14T07:26:29.563Z,16.88
2023-05-14T07:29:00.311Z,16.95
2023-05-14T07:31:28.966Z,16.91
2023-05-14T07:33:59.557Z,16.92
2023-05-14T07:36:28.436Z,16.90
2023-05-14T07:39:05.101Z,16.88
2023-05-14T07:41:33.464Z,16.91
2023-05-14T07:44:02.231Z,17.02
2023-05-14T07:46:33.459Z,17.18
2023-05-14T07:49:01.721Z,17.36
2023-05-14T07:51:30.337Z,17.48
2023-05-14T07:54:00.007Z,17.52
2023-05-14T07:56:33.384Z,17.50
2023-05-14T07:59:07.146Z,17.43
2023-05-14T08:01:39.071Z,17.42
2023-05-14T08:04:08.144Z,17.42
2023-05-14T08:06:39.215Z,17.43
2023-05-14T08:09:08.698Z,17.43
2023-05-14T08:11:39.194Z,17.46
2023-05-14T08:14:07.495Z,17.48
2023-05-14T08:16:38.674Z,17.47
2023-05-14T08:19:08.391Z,17.48
2023-05-14T08:21:36.594Z,17.42
2023-05-14T08:24:09.648Z,17.33
2023-05-14T08:26:41.951Z,17.24
2023-05-14T08:29:14.058Z,17.24
2023-05-14T08:31:44.281Z,17.25
2023-05-14T08:34:12.250Z,17.30
2023-05-14T08:36:42.719Z,17.41
2023-05-14T08:39:14.130Z,17.55
2023-05-14T08:41:44.490Z,17.73
2023-05-14T08:44:16.163Z,17.93
2023-05-14T08:46:44.900Z,18.17
2023-05-14T08:49:23.281Z,18.36
2023-05-14T08:51:56.532Z,18.57
2023-05-14T08:54:26.569Z,18.74
2023-05-14T08:56:56.797Z,18.88
2023-05-14T08:59:25.093Z,18.97
2023-05-14T09:01:55.415Z,19.02
2023-05-14T09:04:26.382Z,19.10
2023-05-14T09:06:56.610Z,19.16
2023-05-14T09:09:24.637Z,19.22
2023-05-14T09:11:55.189Z,19.28
2023-05-14T09:14:24.502Z,19.33
2023-05-14T09:16:54.828Z,19.36
2023-05-14T09:19:22.982Z,19.38
2023-05-14T09:21:51.050Z,19.35
2023-05-14T09:24:24.146Z,19.36
2023-05-14T09:26:54.000Z,19.45
2023-05-14T09:29:26.137Z,19.49
2023-05-14T09:31:55.788Z,19.58
2023-05-14T09:34:27.864Z,19.69
2023-05-14T09:36:57.592Z,19.77
2023-05-14T09:39:26.457Z,19.84
2023-05-14T09:41:55.925Z,19.98
2023-05-14T09:44:26.814Z,20.09
2023-05-14T09:46:57.342Z,20.05
2023-05-14T09:49:26.005Z,20.00
2023-05-14T09:51:54.346Z,20.09
2023-05-14T09:54:23.550Z,20.22
2023-05-14T09:56:52.553Z,20.38
2023-05-14T09:59:22.673Z,20.50
2023-05-14T10:01:54.154Z,20.62
2023-05-14T10:04:26.599Z,20.66
2023-05-14T10:06:56.704Z,20.66
2023-05-14T10:09:29.183Z,20.58
2023-05-14T10:12:02.151Z,20.44
2023-05-14T10:14:39.557Z,20.23
2023-05-14T10:17:18.425Z,20.07
2023-05-14T10:19:52.506Z,19.87
2023-05-14T10:22:24.977Z,19.73
2023-05-14T10:24:54.006Z,19.65
2023-05-14T10:27:24.965Z,19.66
2023-05-14T10:29:55.736Z,19.70
2023-05-14T10:32:27.572Z,19.80
2023-05-14T10:35:03.457Z,19.91
2023-05-14T10:37:33.247Z,19.98
2023-05-14T10:40:06.508Z,20.09
2023-05-14T10:42:37.520Z,20.21
2023-05-14T10:45:08.634Z,20.35
2023-05-14T10:47:43.200Z,20.49
2023-05-14T10:50:15.177Z,20.58
2023-05-14T10:52:44.502Z,20.62
2023-05-14T10:55:16.417Z,20.72
2023-05-14T10:57:45.796Z,20.82
2023-05-14T11:00:15.731Z,20.89
2023-05-14T11:02:45.881Z,20.94
2023-05-14T11:05:17.411Z,21.02
2023-05-14T11:07:47.903Z,21.04
2023-05-14T11:10:23.302Z,20.99
2023-05-14T11:12:52.792Z,20.92
2023-05-14T11:15:23.256Z,20.94
2023-05-14T11:17:54.093Z,20.97
2023-05-14T11:20:22.939Z,20.93
2023-05-14T11:22:52.695Z,20.90
2023-05-14T11:25:21.848Z,20.91
2023-05-14T11:27:51.532Z,20.90
2023-05-14T11:30:23.035Z,20.92
2023-05-14T11:32:54.336Z,20.91
2023-05-14T11:35:22.623Z,20.84
2023-05-14T11:37:53.165Z,20.81
2023-05-14T11:40:25.251Z,20.74
2023-05-14T11:42:53.768Z,20.72
2023-05-14T11:45:29.896Z,20.69
2023-05-14T11:48:00.117Z,20.77
2023-05-14T11:50:31.320Z,20.83
2023-05-14T11:52:59.443Z,20.94
2023-05-14T11:55:28.097Z,20.91
2023-05-14T11:57:57.817Z,20.96
2023-05-14T12:00:27.921Z,21.00
2023-05-14T12:02:56.537Z,21.02
2023-05-14T12:05:26.391Z,21.14
2023-05-14T12:07:58.532Z,21.27
2023-05-14T12:10:30.103Z,21.34
2023-05-14T12:12:58.890Z,21.44
2023-05-14T12:15:30.408Z,21.56
2023-05-14T12:17:59.317Z,21.68
2023-05-14T12:20:31.536Z,21.83
2023-05-14T12:23:00.522Z,22.15
2023-05-14T12:25:28.900Z,22.29
2023-05-14T12:27:57.437Z,22.30
2023-05-14T12:30:25.285Z,22.43
2023-05-14T12:32:53.571Z,22.67
2023-05-14T12:35:23.399Z,23.01
2023-05-14T12:37:53.214Z,23.25
2023-05-14T12:40:23.634Z,23.45
2023-05-14T12:42:53.050Z,23.54
2023-05-14T12:45:22.904Z,23.60
2023-05-14T12:47:51.548Z,23.61
2023-05-14T12:50:20.635Z,23.71
2023-05-14T12:52:49.183Z,23.85
2023-05-14T12:55:18.802Z,24.03
2023-05-14T12:57:47.080Z,24.03
2023-05-14T13:00:16.404Z,24.06
2023-05-14T13:02:44.857Z,24.12
2023-05-14T13:05:13.179Z,24.17
2023-05-14T13:07:41.741Z,24.33
2023-05-14T13:10:11.708Z,24.39
2023-05-14T13:12:41.677Z,24.42
2023-05-14T13:15:11.492Z,24.40
2023-05-14T13:17:41.384Z,24.32
2023-05-14T13:20:12.137Z,24.46
2023-05-14T13:22:43.390Z,24.69
2023-05-14T13:25:16.636Z,24.73
2023-05-14T13:27:45.931Z,24.75
2023-05-14T13:30:14.723Z,24.89
2023-05-14T13:32:46.473Z,25.05
2023-05-14T13:35:16.899Z,25.18
2023-05-14T13:37:45.762Z,25.33
2023-05-14T13:40:18.338Z,25.59
2023-05-14T13:42:48.726Z,25.74
2023-05-14T13:45:17.110Z,25.67
2023-05-14T13:47:48.766Z,25.28
2023-05-14T13:50:22.192Z,25.32
2023-05-14T13:52:51.015Z,25.42
2023-05-14T13:55:19.227Z,25.32
2023-05-14T13:57:51.102Z,25.38
2023-05-14T14:00:20.422Z,25.66
2023-05-14T14:02:49.582Z,25.86
2023-05-14T14:05:18.220Z,25.99
2023-05-14T14:07:47.583Z,26.13
2023-05-14T14:10:18.827Z,26.19
2023-05-14T14:12:51.576Z,26.26
2023-05-14T14:15:19.744Z,26.31
2023-05-14T14:17:48.439Z,26.46
2023-05-14T14:20:19.239Z,26.71
2023-05-14T14:22:48.297Z,26.74
2023-05-14T14:25:16.419Z,26.61
2023-05-14T14:27:47.372Z,26.54
2023-05-14T14:30:16.879Z,26.65
2023-05-14T14:32:46.330Z,26.72
2023-05-14T14:35:17.894Z,26.64
2023-05-14T14:37:50.764Z,26.72
2023-05-14T14:40:19.260Z,26.96
2023-05-14T14:42:50.037Z,27.20
2023-05-14T14:45:19.826Z,27.45
2023-05-14T14:47:50.869Z,27.48
2023-05-14T14:50:19.134Z,27.65
2023-05-14T14:52:50.176Z,28.12
2023-05-14T14:55:18.331Z,28.53
2023-05-14T14:57:52.563Z,28.72
2023-05-14T15:00:22.911Z,28.23
2023-05-14T15:02:51.240Z,27.85
2023-05-14T15:05:19.341Z,27.63
2023-05-14T15:07:49.986Z,27.38
2023-05-14T15:10:18.516Z,27.30
2023-05-14T15:12:46.831Z,27.92
2023-05-14T15:15:16.047Z,29.64
2023-05-14T15:17:48.391Z,32.01
2023-05-14T15:20:17.318Z,33.62
2023-05-14T15:22:45.839Z,33.75
2023-05-14T15:25:15.301Z,32.33
2023-05-14T15:27:43.457Z,30.79
2023-05-14T15:30:15.836Z,29.43
2023-05-14T15:32:45.695Z,28.49
2023-05-14T15:35:15.534Z,27.82
2023-05-14T15:37:47.056Z,27.30
2023-05-14T15:40:15.132Z,27.00
2023-05-14T15:42:46.860Z,26.55
2023-05-14T15:45:15.481Z,28.74
2023-05-14T15:47:44.244Z,31.61
2023-05-14T15:50:12.736Z,31.82
2023-05-14T15:52:45.068Z,30.22
2023-05-14T15:55:13.568Z,28.68
2023-05-14T15:57:44.300Z,27.22
2023-05-14T16:00:16.343Z,26.17
2023-05-14T16:02:44.852Z,25.38
2023-05-14T16:05:13.315Z,24.83
2023-05-14T16:07:41.793Z,24.45
2023-05-14T16:10:12.548Z,24.08
2023-05-14T16:12:40.626Z,23.86
2023-05-14T16:15:10.802Z,23.67
2023-05-14T16:17:39.315Z,23.59
2023-05-14T16:20:09.724Z,23.63
2023-05-14T16:22:39.437Z,23.78
2023-05-14T16:25:08.224Z,24.08
2023-05-14T16:27:37.923Z,24.35
2023-05-14T16:30:11.097Z,24.59
2023-05-14T16:32:41.639Z,25.11
2023-05-14T16:35:12.456Z,25.22
2023-05-14T16:37:40.752Z,24.92
2023-05-14T16:40:12.183Z,24.69
2023-05-14T16:42:41.540Z,24.52
2023-05-14T16:45:12.752Z,24.49
2023-05-14T16:47:43.450Z,24.32
2023-05-14T16:50:12.000Z,24.18
2023-05-14T16:52:40.097Z,23.91
2023-05-14T16:55:11.062Z,23.85
2023-05-14T16:57:44.278Z,24.08
2023-05-14T17:00:15.526Z,24.69
2023-05-14T17:02:43.575Z,24.74
2023-05-14T17:05:11.673Z,24.70
2023-05-14T17:07:40.038Z,24.48
2023-05-14T17:10:09.274Z,24.32
2023-05-14T17:12:37.904Z,24.03
2023-05-14T17:15:08.161Z,23.87
2023-05-14T17:17:37.553Z,23.77
2023-05-14T17:20:07.094Z,23.83
2023-05-14T17:22:35.507Z,23.97
2023-05-14T17:25:04.307Z,24.17
2023-05-14T17:27:36.140Z,24.27
2023-05-14T17:30:05.053Z,24.31
2023-05-14T17:32:33.358Z,24.24
2023-05-14T17:35:02.907Z,23.95
2023-05-14T17:37:32.015Z,23.63
2023-05-14T17:40:02.221Z,23.29
2023-05-14T17:42:30.470Z,22.95
2023-05-14T17:44:59.125Z,22.63
2023-05-14T17:47:27.496Z,22.26
2023-05-14T17:49:56.014Z,21.91
2023-05-14T17:52:25.781Z,21.62
2023-05-14T17:54:56.515Z,21.46
2023-05-14T17:57:25.895Z,21.34
2023-05-14T17:59:54.069Z,21.15
2023-05-14T18:02:23.372Z,21.03
2023-05-14T18:04:51.500Z,20.89
2023-05-14T18:07:20.734Z,20.79
2023-05-14T18:09:50.266Z,20.69
2023-05-14T18:12:18.363Z,20.56
2023-05-14T18:14:48.784Z,20.43
2023-05-14T18:17:17.626Z,20.27
2023-05-14T18:19:48.192Z,20.05
2023-05-14T18:22:17.560Z,19.92
2023-05-14T18:24:51.652Z,19.80
2023-05-14T18:27:22.278Z,19.67
2023-05-14T18:29:51.944Z,19.53
2023-05-14T18:32:22.556Z,19.47
2023-05-14T18:34:50.920Z,19.21
2023-05-14T18:37:24.832Z,18.99
2023-05-14T18:39:57.432Z,18.85
2023-05-14T18:42:26.178Z,18.76
2023-05-14T18:44:54.174Z,18.69
2023-05-14T18:47:22.822Z,18.64
2023-05-14T18:49:55.038Z,18.58
2023-05-14T18:52:24.343Z,18.52
2023-05-14T18:54:55.830Z,18.46
2023-05-14T18:57:29.175Z,18.37
2023-05-14T18:59:58.090Z,18.33
2023-05-14T19:02:29.122Z,18.29
2023-05-14T19:04:57.600Z,18.25
2023-05-14T19:07:27.731Z,18.22
2023-05-14T19:09:58.648Z,18.13
2023-05-14T19:12:28.934Z,18.05
2023-05-14T19:14:57.162Z,18.00
2023-05-14T19:17:32.720Z,17.94
2023-05-14T19:20:01.214Z,17.84
2023-05-14T19:22:33.550Z,17.81
2023-05-14T19:25:06.886Z,17.77
2023-05-14T19:27:41.108Z,17.71
2023-05-14T19:30:10.050Z,17.65
2023-05-14T19:32:40.688Z,17.64
2023-05-14T19:35:09.308Z,17.60
2023-05-14T19:37:37.617Z,17.57
2023-05-14T19:40:07.216Z,17.54
2023-05-14T19:42:35.469Z,17.52
2023-05-14T19:45:08.496Z,17.52
2023-05-14T19:47:39.987Z,17.50
2023-05-14T19:50:15.791Z,17.48
2023-05-14T19:52:44.067Z,17.47
2023-05-14T19:55:14.414Z,17.44
2023-05-14T19:57:42.682Z,17.44
2023-05-14T20:00:15.482Z,17.38
2023-05-14T20:02:46.216Z,17.36
2023-05-14T20:05:15.458Z,17.26
2023-05-14T20:07:47.062Z,17.17
2023-05-14T20:10:15.666Z,17.17
2023-05-14T20:12:43.933Z,17.17
2023-05-14T20:15:13.914Z,17.12
2023-05-14T20:17:48.181Z,17.10
2023-05-14T20:20:21.010Z,17.09
2023-05-14T20:22:49.211Z,17.07
2023-05-14T20:25:18.387Z,17.06
2023-05-14T20:27:46.598Z,17.03
2023-05-14T20:30:22.208Z,16.98
2023-05-14T20:32:51.221Z,16.94
2023-05-14T20:35:19.600Z,16.93
2023-05-14T20:37:49.523Z,16.91
2023-05-14T20:40:21.440Z,16.88
2023-05-14T20:42:52.531Z,16.82
2023-05-14T20:45:23.389Z,16.75
2023-05-14T20:47:54.790Z,16.67
2023-05-14T20:50:27.442Z,16.59
2023-05-14T20:52:57.969Z,16.50
2023-05-14T20:55:28.198Z,16.41
2023-05-14T20:57:56.588Z,16.34
2023-05-14T21:00:26.492Z,16.28
2023-05-14T21:02:54.753Z,16.21
2023-05-14T21:05:23.065Z,16.15
2023-05-14T21:07:51.518Z,16.09
2023-05-14T21:10:20.081Z,16.06
2023-05-14T21:12:47.933Z,16.01
2023-05-14T21:15:16.188Z,15.96
2023-05-14T21:17:46.024Z,15.95
2023-05-14T21:20:15.594Z,15.89
2023-05-14T21:22:46.619Z,15.82
2023-05-14T21:25:14.844Z,15.80
2023-05-14T21:27:43.321Z,15.73
2023-05-14T21:30:12.930Z,15.72
2023-05-14T21:32:42.453Z,15.71
2023-05-14T21:35:12.288Z,15.65
2023-05-14T21:37:40.869Z,15.57
2023-05-14T21:40:12.181Z,15.52
2023-05-14T21:42:42.551Z,15.45
2023-05-14T21:45:11.544Z,15.40
2023-05-14T21:47:40.268Z,15.33
2023-05-14T21:50:13.755Z,15.29
2023-05-14T21:52:41.700Z,15.24
2023-05-14T21:55:12.612Z,15.21
2023-05-14T21:57:41.892Z,15.13
2023-05-14T22:00:17.148Z,15.08
2023-05-14T22:02:45.859Z,15.00
2023-05-14T22:05:15.872Z,14.94
2023-05-14T22:07:44.411Z,14.87
2023-05-14T22:10:14.678Z,14.81
2023-05-14T22:12:44.446Z,14.79
2023-05-14T22:15:13.948Z,14.76
2023-05-14T22:17:43.094Z,14.72
2023-05-14T22:20:12.200Z,14.66
2023-05-14T22:22:41.722Z,14.61
2023-05-14T22:25:11.388Z,14.57
2023-05-14T22:27:39.437Z,14.53
2023-05-14T22:30:09.234Z,14.52
2023-05-14T22:32:37.494Z,14.47
2023-05-14T22:35:06.211Z,14.44
2023-05-14T22:37:34.368Z,14.44
2023-05-14T22:40:09.112Z,14.40
2023-05-14T22:42:38.736Z,14.35
2023-05-14T22:45:11.241Z,14.30
2023-05-14T22:47:40.393Z,14.26
2023-05-14T22:50:11.598Z,14.19
2023-05-14T22:52:40.332Z,14.13
2023-05-14T22:55:12.758Z,14.13
2023-05-14T22:57:43.950Z,14.04
2023-05-14T23:00:14.628Z,14.00
2023-05-14T23:02:43.285Z,13.91
2023-05-14T23:05:12.633Z,13.88
2023-05-14T23:07:43.164Z,13.86
2023-05-14T23:10:13.644Z,13.86
2023-05-14T23:12:42.435Z,13.79
2023-05-14T23:15:11.986Z,13.73
2023-05-14T23:17:43.090Z,13.71
2023-05-14T23:20:12.707Z,13.69
2023-05-14T23:22:42.583Z,13.64
2023-05-14T23:25:12.321Z,13.63
2023-05-14T23:27:42.245Z,13.63
2023-05-14T23:30:13.290Z,13.60
2023-05-14T23:32:41.238Z,13.56
2023-05-14T23:35:09.802Z,13.51
2023-05-14T23:37:48.042Z,13.53
2023-05-14T23:40:18.818Z,13.46
2023-05-14T23:42:47.189Z,13.43
2023-05-14T23:45:17.582Z,13.41
2023-05-14T23:47:46.054Z,13.37
2023-05-14T23:50:15.826Z,13.36
2023-05-14T23:52:48.519Z,13.29
2023-05-14T23:55:18.704Z,13.26
2023-05-14T23:57:46.898Z,13.26
